createdAt,value
2023-05-13T00:02:16.833Z,67.13
2023-05-13T00:04:43.826Z,68.18
2023-05-13T00:07:10.786Z,68.83
2023-05-13T00:09:37.668Z,70.01
2023-05-13T00:12:04.988Z,70.43
2023-05-13T00:14:32.186Z,70.97
2023-05-13T00:16:59.745Z,71.07
2023-05-13T00:19:26.689Z,71.27
2023-05-13T00:21:53.623Z,71.60
2023-05-13T00:24:20.794Z,71.77
2023-05-13T00:26:47.982Z,72.96
2023-05-13T00:29:14.971Z,74.33
2023-05-13T00:31:42.082Z,73.54
2023-05-13T00:34:09.071Z,73.84
2023-05-13T00:36:36.121Z,73.69
2023-05-13T00:39:03.908Z,73.56
2023-05-13T00:41:30.976Z,73.65
2023-05-13T00:43:57.937Z,75.35
2023-05-13T00:46:25.699Z,74.18
2023-05-13T00:48:53.213Z,73.83
2023-05-13T00:51:20.212Z,72.30
2023-05-13T00:53:47.548Z,71.06
2023-05-13T00:56:18.236Z,71.10
2023-05-13T00:58:45.232Z,70.81
2023-05-13T01:01:41.234Z,71.33
2023-05-13T01:04:26.152Z,71.34
2023-05-13T01:07:12.811Z,70.96
2023-05-13T01:09:55.269Z,71.07
2023-05-13T01:12:31.085Z,70.96
2023-05-13T01:15:11.569Z,71.22
2023-05-13T01:17:55.237Z,71.46
2023-05-13T01:20:24.775Z,71.84
2023-05-13T01:22:52.670Z,71.65
2023-05-13T01:25:19.699Z,71.44
2023-05-13T01:27:46.853Z,71.69
2023-05-13T01:30:16.883Z,71.58
2023-05-13T01:32:44.844Z,71.40
2023-05-13T01:35:12.622Z,71.43
2023-05-13T01:37:44.647Z,71.17
2023-05-13T01:40:28.167Z,71.27
2023-05-13T01:43:02.312Z,71.45
2023-05-13T01:45:30.307Z,71.37
2023-05-13T01:47:57.896Z,71.68
2023-05-13T01:50:26.805Z,71.01
2023-05-13T01:52:53.924Z,70.70
2023-05-13T01:55:21.085Z,71.44
2023-05-13T01:57:49.311Z,71.65
2023-05-13T02:00:16.800Z,72.00
2023-05-13T02:02:43.783Z,71.67
2023-05-13T02:05:10.904Z,71.85
2023-05-13T02:07:38.464Z,71.72
2023-05-13T02:10:06.447Z,71.34
2023-05-13T02:12:33.619Z,72.38
2023-05-13T02:15:01.411Z,72.57
2023-05-13T02:17:30.802Z,72.98
2023-05-13T02:19:57.776Z,73.12
2023-05-13T02:22:24.888Z,73.71
2023-05-13T02:24:51.828Z,74.11
2023-05-13T02:27:18.832Z,74.96
2023-05-13T02:29:46.207Z,74.93
2023-05-13T02:32:13.393Z,74.75
2023-05-13T02:34:40.411Z,74.65
2023-05-13T02:37:07.445Z,75.38
2023-05-13T02:39:40.811Z,75.46
2023-05-13T02:42:08.350Z,76.41
2023-05-13T02:44:35.664Z,76.77
2023-05-13T02:47:02.786Z,75.67
2023-05-13T02:49:30.032Z,75.27
2023-05-13T02:51:57.045Z,74.53
2023-05-13T02:54:31.244Z,74.01
2023-05-13T02:56:58.200Z,74.50
2023-05-13T02:59:25.632Z,75.05
2023-05-13T03:01:52.680Z,74.32
2023-05-13T03:04:19.720Z,73.56
2023-05-13T03:06:47.534Z,74.75
2023-05-13T03:09:14.557Z,74.74
2023-05-13T03:11:41.522Z,75.67
2023-05-13T03:14:08.476Z,76.46
2023-05-13T03:16:35.581Z,77.03
2023-05-13T03:19:02.919Z,78.21
2023-05-13T03:21:29.975Z,78.89
2023-05-13T03:23:57.178Z,79.20
2023-05-13T03:26:25.000Z,78.65
2023-05-13T03:28:52.072Z,79.23
2023-05-13T03:31:19.646Z,82.00
2023-05-13T03:33:46.821Z,82.59
2023-05-13T03:36:14.758Z,82.49
2023-05-13T03:38:41.814Z,82.85
2023-05-13T03:41:08.881Z,83.09
2023-05-13T03:43:36.081Z,82.94
2023-05-13T03:46:07.735Z,82.74
2023-05-13T03:48:34.892Z,82.94
2023-05-13T03:51:02.972Z,83.32
2023-05-13T03:53:30.522Z,82.47
2023-05-13T03:55:58.090Z,83.82
2023-05-13T03:58:27.768Z,83.31
2023-05-13T04:00:54.804Z,82.66
2023-05-13T04:03:21.952Z,82.88
2023-05-13T04:05:49.903Z,82.97
2023-05-13T04:08:18.200Z,83.07
2023-05-13T04:10:45.271Z,83.69
2023-05-13T04:13:12.286Z,83.97
2023-05-13T04:15:39.592Z,84.07
2023-05-13T04:18:07.244Z,84.14
2023-05-13T04:20:35.236Z,84.46
2023-05-13T04:23:02.353Z,84.76
2023-05-13T04:25:29.997Z,85.19
2023-05-13T04:27:57.042Z,84.99
2023-05-13T04:30:29.762Z,85.15
2023-05-13T04:32:57.568Z,85.34
2023-05-13T04:35:24.967Z,85.28
2023-05-13T04:37:56.675Z,86.07
2023-05-13T04:40:23.981Z,85.45
2023-05-13T04:42:55.194Z,85.53
2023-05-13T04:45:32.855Z,84.92
2023-05-13T04:48:01.027Z,85.44
2023-05-13T04:50:28.348Z,85.50
2023-05-13T04:52:56.916Z,84.78
2023-05-13T04:55:26.001Z,84.43
2023-05-13T04:57:55.261Z,85.54
2023-05-13T05:00:22.604Z,86.29
2023-05-13T05:02:51.456Z,85.88
2023-05-13T05:05:18.795Z,85.63
2023-05-13T05:07:46.496Z,85.92
2023-05-13T05:10:15.438Z,86.18
2023-05-13T05:12:48.685Z,85.89
2023-05-13T05:15:16.068Z,85.87
2023-05-13T05:17:46.298Z,83.51
2023-05-13T05:20:13.778Z,83.58
2023-05-13T05:22:42.378Z,82.81
2023-05-13T05:25:11.877Z,83.53
2023-05-13T05:27:39.238Z,83.19
2023-05-13T05:30:07.379Z,84.02
2023-05-13T05:32:36.086Z,84.04
2023-05-13T05:35:05.048Z,84.75
2023-05-13T05:37:33.452Z,83.49
2023-05-13T05:40:01.014Z,84.02
2023-05-13T05:42:28.964Z,83.25
2023-05-13T05:44:56.286Z,84.09
2023-05-13T05:47:23.975Z,85.06
2023-05-13T05:49:51.364Z,84.45
2023-05-13T05:52:18.961Z,84.31
2023-05-13T05:54:46.067Z,85.41
2023-05-13T05:57:13.131Z,87.73
2023-05-13T05:59:40.373Z,82.92
2023-05-13T06:02:07.906Z,91.92
2023-05-13T06:04:35.881Z,91.60
2023-05-13T06:07:03.039Z,88.62
2023-05-13T06:09:30.548Z,86.21
2023-05-13T06:11:57.546Z,85.70
2023-05-13T06:14:24.537Z,86.03
2023-05-13T06:16:53.534Z,84.61
2023-05-13T06:19:21.733Z,83.45
2023-05-13T06:21:48.862Z,81.82
2023-05-13T06:24:15.922Z,81.72
2023-05-13T06:26:44.363Z,83.91
2023-05-13T06:29:14.244Z,82.69
2023-05-13T06:31:41.309Z,81.77
2023-05-13T06:34:08.658Z,80.78
2023-05-13T06:36:35.925Z,80.70
2023-05-13T06:39:05.373Z,81.17
2023-05-13T06:41:34.045Z,81.55
2023-05-13T06:44:08.025Z,80.61
2023-05-13T06:46:38.985Z,76.45
2023-05-13T06:49:06.743Z,77.44
2023-05-13T06:51:35.004Z,75.65
2023-05-13T06:54:02.028Z,74.08
2023-05-13T06:56:30.351Z,80.18
2023-05-13T06:58:57.460Z,80.56
2023-05-13T07:01:24.363Z,81.30
2023-05-13T07:03:51.470Z,75.45
2023-05-13T07:06:18.669Z,74.66
2023-05-13T07:08:45.653Z,70.95
2023-05-13T07:11:12.753Z,70.72
2023-05-13T07:13:40.126Z,71.89
2023-05-13T07:16:07.434Z,77.87
2023-05-13T07:18:34.843Z,76.67
2023-05-13T07:21:01.834Z,76.87
2023-05-13T07:23:31.123Z,71.84
2023-05-13T07:25:58.176Z,71.06
2023-05-13T07:28:25.299Z,70.71
2023-05-13T07:30:53.733Z,65.85
2023-05-13T07:33:20.964Z,69.56
2023-05-13T07:35:48.115Z,65.42
2023-05-13T07:38:15.498Z,68.90
2023-05-13T07:40:42.520Z,69.60
2023-05-13T07:43:09.789Z,68.16
2023-05-13T07:45:36.917Z,69.79
2023-05-13T07:48:04.142Z,65.10
2023-05-13T07:50:31.803Z,68.09
2023-05-13T07:52:58.919Z,66.41
2023-05-13T07:55:27.644Z,62.47
2023-05-13T07:57:54.650Z,63.08
2023-05-13T08:00:21.699Z,65.00
2023-05-13T08:02:48.715Z,66.44
2023-05-13T08:05:15.878Z,65.88
2023-05-13T08:07:45.940Z,66.05
2023-05-13T08:10:12.942Z,64.39
2023-05-13T08:12:40.686Z,60.47
2023-05-13T08:15:08.326Z,59.37
2023-05-13T08:17:35.386Z,60.87
2023-05-13T08:20:03.717Z,62.12
2023-05-13T08:22:31.109Z,59.13
2023-05-13T08:25:01.166Z,59.93
2023-05-13T08:27:28.180Z,64.39
2023-05-13T08:29:55.209Z,60.98
2023-05-13T08:32:22.293Z,57.62
2023-05-13T08:34:50.684Z,60.14
2023-05-13T08:37:17.747Z,60.42
2023-05-13T08:39:44.907Z,58.04
2023-05-13T08:42:12.529Z,57.28
2023-05-13T08:44:42.943Z,60.90
2023-05-13T08:47:36.937Z,64.36
2023-05-13T08:50:04.486Z,60.87
2023-05-13T08:52:31.938Z,60.88
2023-05-13T08:55:01.188Z,60.92
2023-05-13T08:57:28.502Z,62.80
2023-05-13T08:59:55.697Z,66.02
2023-05-13T09:02:23.542Z,64.61
2023-05-13T09:04:53.775Z,65.28
2023-05-13T09:07:23.908Z,63.97
2023-05-13T09:09:51.495Z,63.63
2023-05-13T09:12:56.076Z,62.10
2023-05-13T09:15:25.500Z,60.43
2023-05-13T09:18:05.348Z,61.63
2023-05-13T09:20:33.478Z,62.33
2023-05-13T09:23:04.172Z,63.26
2023-05-13T09:25:32.114Z,63.29
2023-05-13T09:28:03.511Z,63.48
2023-05-13T09:30:35.846Z,59.22
2023-05-13T09:33:13.860Z,58.97
2023-05-13T09:35:43.630Z,60.02
2023-05-13T09:38:21.697Z,61.08
2023-05-13T09:40:52.444Z,62.64
2023-05-13T09:43:24.763Z,62.17
2023-05-13T09:45:56.229Z,62.35
2023-05-13T09:48:26.278Z,63.26
2023-05-13T09:50:53.836Z,63.11
2023-05-13T09:53:21.396Z,63.30
2023-05-13T09:55:50.101Z,61.14
2023-05-13T09:58:17.188Z,62.23
2023-05-13T10:00:44.809Z,61.54
2023-05-13T10:03:12.228Z,58.41
2023-05-13T10:05:41.142Z,60.75
2023-05-13T10:08:12.493Z,63.19
2023-05-13T10:10:40.925Z,59.71
2023-05-13T10:13:14.718Z,62.99
2023-05-13T10:15:50.356Z,58.91
2023-05-13T10:18:18.964Z,63.53
2023-05-13T10:20:47.059Z,63.73
2023-05-13T10:23:14.113Z,60.62
2023-05-13T10:25:42.906Z,56.68
2023-05-13T10:28:10.969Z,57.34
2023-05-13T10:30:39.177Z,58.91
2023-05-13T10:33:06.436Z,59.52
2023-05-13T10:35:43.081Z,61.39
2023-05-13T10:38:25.252Z,60.20
2023-05-13T10:41:10.547Z,59.75
2023-05-13T10:43:38.060Z,55.29
2023-05-13T10:46:07.783Z,55.08
2023-05-13T10:48:59.559Z,54.58
2023-05-13T10:51:27.343Z,57.10
2023-05-13T10:53:56.609Z,56.88
2023-05-13T10:56:25.839Z,56.13
2023-05-13T10:59:01.522Z,58.34
2023-05-13T11:01:46.841Z,56.20
2023-05-13T11:04:17.259Z,56.15
2023-05-13T11:06:48.841Z,56.84
2023-05-13T11:09:30.851Z,53.04
2023-05-13T11:12:01.459Z,55.54
2023-05-13T11:14:31.116Z,56.64
2023-05-13T11:17:01.680Z,56.40
2023-05-13T11:19:28.637Z,55.59
2023-05-13T11:21:57.929Z,56.18
2023-05-13T11:24:26.657Z,56.30
2023-05-13T11:26:59.218Z,57.50
2023-05-13T11:29:36.434Z,56.96
2023-05-13T11:32:05.631Z,56.38
2023-05-13T11:34:34.473Z,58.77
2023-05-13T11:37:04.499Z,59.96
2023-05-13T11:39:33.181Z,63.16
2023-05-13T11:42:05.521Z,65.96
2023-05-13T11:44:34.521Z,67.09
2023-05-13T11:47:06.235Z,70.88
2023-05-13T11:49:40.143Z,68.92
2023-05-13T11:52:07.100Z,68.75
2023-05-13T11:54:45.309Z,69.75
2023-05-13T11:57:18.145Z,67.06
2023-05-13T12:00:11.022Z,68.61
2023-05-13T12:02:40.888Z,70.13
2023-05-13T12:05:09.750Z,66.22
2023-05-13T12:07:38.157Z,62.54
2023-05-13T12:10:07.292Z,62.97
2023-05-13T12:12:39.225Z,61.33
2023-05-13T12:15:10.984Z,59.74
2023-05-13T12:17:38.837Z,58.72
2023-05-13T12:20:09.902Z,58.77
2023-05-13T12:22:57.417Z,59.32
2023-05-13T12:25:53.706Z,59.86
2023-05-13T12:28:22.081Z,62.49
2023-05-13T12:30:59.143Z,67.06
2023-05-13T12:33:42.638Z,66.03
2023-05-13T12:36:29.244Z,63.14
2023-05-13T12:39:00.386Z,62.20
2023-05-13T12:41:31.070Z,59.05
2023-05-13T12:44:05.223Z,58.42
2023-05-13T12:46:32.863Z,57.53
2023-05-13T12:49:02.220Z,54.28
2023-05-13T12:51:30.277Z,54.34
2023-05-13T12:53:58.055Z,56.40
2023-05-13T12:56:26.482Z,59.35
2023-05-13T12:58:54.500Z,58.65
2023-05-13T13:01:22.289Z,58.33
2023-05-13T13:03:49.607Z,59.08
2023-05-13T13:06:16.951Z,58.87
2023-05-13T13:08:44.019Z,58.82
2023-05-13T13:11:14.959Z,59.06
2023-05-13T13:13:43.443Z,58.04
2023-05-13T13:16:10.570Z,56.96
2023-05-13T13:18:37.731Z,58.08
2023-05-13T13:21:05.933Z,58.02
2023-05-13T13:23:33.592Z,57.22
2023-05-13T13:26:00.820Z,56.48
2023-05-13T13:28:28.297Z,57.00
2023-05-13T13:30:55.461Z,56.82
2023-05-13T13:33:22.643Z,55.85
2023-05-13T13:35:49.870Z,56.33
2023-05-13T13:38:16.994Z,56.93
2023-05-13T13:40:44.098Z,58.06
2023-05-13T13:43:11.068Z,58.32
2023-05-13T13:45:38.197Z,58.78
2023-05-13T13:48:05.963Z,57.70
2023-05-13T13:50:33.045Z,57.25
2023-05-13T13:52:59.991Z,58.07
2023-05-13T13:55:27.279Z,58.29
2023-05-13T13:57:54.301Z,57.88
2023-05-13T14:00:21.601Z,58.95
2023-05-13T14:02:49.120Z,59.20
2023-05-13T14:05:16.555Z,59.76
2023-05-13T14:07:43.498Z,58.96
2023-05-13T14:10:10.815Z,59.44
2023-05-13T14:12:38.569Z,57.36
2023-05-13T14:15:06.829Z,58.39
2023-05-13T14:17:34.134Z,55.88
2023-05-13T14:20:01.429Z,55.67
2023-05-13T14:22:28.508Z,56.75
2023-05-13T14:24:55.576Z,58.67
2023-05-13T14:27:24.868Z,59.21
2023-05-13T14:29:52.168Z,57.78
2023-05-13T14:32:19.262Z,59.94
2023-05-13T14:34:46.468Z,59.15
2023-05-13T14:37:13.567Z,59.23
2023-05-13T14:39:40.812Z,57.34
2023-05-13T14:42:07.888Z,57.56
2023-05-13T14:44:34.939Z,53.99
2023-05-13T14:47:02.202Z,55.68
2023-05-13T14:49:29.378Z,56.41
2023-05-13T14:51:56.543Z,55.21
2023-05-13T14:54:23.646Z,55.32
2023-05-13T14:56:52.346Z,55.62
2023-05-13T14:59:19.763Z,55.47
2023-05-13T15:01:46.884Z,54.60
2023-05-13T15:04:14.062Z,55.08
2023-05-13T15:06:41.165Z,55.15
2023-05-13T15:09:08.633Z,55.62
2023-05-13T15:11:36.537Z,54.11
2023-05-13T15:14:03.549Z,53.78
2023-05-13T15:16:30.895Z,53.59
2023-05-13T15:18:58.073Z,54.34
2023-05-13T15:21:25.208Z,54.28
2023-05-13T15:23:52.276Z,53.57
2023-05-13T15:26:19.575Z,53.41
2023-05-13T15:28:46.689Z,53.21
2023-05-13T15:31:13.916Z,53.60
2023-05-13T15:33:42.779Z,54.13
2023-05-13T15:36:11.759Z,53.83
2023-05-13T15:38:39.242Z,53.60
2023-05-13T15:41:06.391Z,53.34
2023-05-13T15:43:34.369Z,52.92
2023-05-13T15:46:02.067Z,53.17
2023-05-13T15:48:31.627Z,54.18
2023-05-13T15:50:58.807Z,55.21
2023-05-13T15:53:25.861Z,54.19
2023-05-13T15:55:53.017Z,54.88
2023-05-13T15:58:20.018Z,54.84
2023-05-13T16:00:47.176Z,55.02
2023-05-13T16:03:14.238Z,53.84
2023-05-13T16:05:41.311Z,55.01
2023-05-13T16:08:08.327Z,56.36
2023-05-13T16:10:35.956Z,57.22
2023-05-13T16:13:03.176Z,57.13
2023-05-13T16:15:30.212Z,57.05
2023-05-13T16:17:57.523Z,55.34
2023-05-13T16:20:24.790Z,55.11
2023-05-13T16:22:52.287Z,55.86
2023-05-13T16:25:19.440Z,54.90
2023-05-13T16:27:47.543Z,55.10
2023-05-13T16:30:14.888Z,55.33
2023-05-13T16:32:42.110Z,54.90
2023-05-13T16:35:11.827Z,55.88
2023-05-13T16:37:38.933Z,56.32
2023-05-13T16:40:06.774Z,56.38
2023-05-13T16:42:33.904Z,56.50
2023-05-13T16:45:00.988Z,56.60
2023-05-13T16:47:28.405Z,57.07
2023-05-13T16:49:56.433Z,57.50
2023-05-13T16:52:24.787Z,58.54
2023-05-13T16:54:53.933Z,59.26
2023-05-13T16:57:23.726Z,59.35
2023-05-13T16:59:50.846Z,59.37
2023-05-13T17:02:18.003Z,59.51
2023-05-13T17:04:45.024Z,59.64
2023-05-13T17:07:12.138Z,59.86
2023-05-13T17:09:39.249Z,59.65
2023-05-13T17:12:06.659Z,57.75
2023-05-13T17:14:33.667Z,58.69
2023-05-13T17:17:00.907Z,57.87
2023-05-13T17:19:28.117Z,58.85
2023-05-13T17:21:55.204Z,58.69
2023-05-13T17:24:29.213Z,59.56
2023-05-13T17:26:56.765Z,59.83
2023-05-13T17:29:25.740Z,59.86
2023-05-13T17:31:52.983Z,60.07
2023-05-13T17:34:20.339Z,59.63
2023-05-13T17:36:49.944Z,59.82
2023-05-13T17:39:17.414Z,58.78
2023-05-13T17:41:44.532Z,58.21
2023-05-13T17:44:11.671Z,58.63
2023-05-13T17:46:38.751Z,58.92
2023-05-13T17:49:05.818Z,60.43
2023-05-13T17:51:32.923Z,60.52
2023-05-13T17:53:59.995Z,60.40
2023-05-13T17:56:27.110Z,60.55
2023-05-13T17:58:54.142Z,60.73
2023-05-13T18:01:22.009Z,61.51
2023-05-13T18:03:48.996Z,61.41
2023-05-13T18:06:16.485Z,62.13
2023-05-13T18:08:43.617Z,62.52
2023-05-13T18:11:10.667Z,61.68
2023-05-13T18:13:37.751Z,62.49
2023-05-13T18:16:06.206Z,62.59
2023-05-13T18:18:33.400Z,62.37
2023-05-13T18:21:00.639Z,61.99
2023-05-13T18:23:27.571Z,62.25
2023-05-13T18:25:56.273Z,62.27
2023-05-13T18:28:23.793Z,61.16
2023-05-13T18:30:50.787Z,61.02
2023-05-13T18:33:20.398Z,61.59
2023-05-13T18:35:47.664Z,61.50
2023-05-13T18:38:14.712Z,61.88
2023-05-13T18:40:41.778Z,62.28
2023-05-13T18:43:08.782Z,62.70
2023-05-13T18:45:35.894Z,62.40
2023-05-13T18:48:03.138Z,62.52
2023-05-13T18:50:30.447Z,62.44
2023-05-13T18:52:57.634Z,62.53
2023-05-13T18:55:24.595Z,61.43
2023-05-13T18:57:51.707Z,61.63
2023-05-13T19:00:19.529Z,61.63
2023-05-13T19:02:46.657Z,61.78
2023-05-13T19:05:13.900Z,61.82
2023-05-13T19:07:41.050Z,62.36
2023-05-13T19:10:08.089Z,62.34
2023-05-13T19:12:35.156Z,62.64
2023-05-13T19:15:02.170Z,62.33
2023-05-13T19:17:29.320Z,62.88
2023-05-13T19:19:57.574Z,63.22
2023-05-13T19:22:24.642Z,63.30
2023-05-13T19:24:51.631Z,62.90
2023-05-13T19:27:18.944Z,63.15
2023-05-13T19:29:46.217Z,64.43
2023-05-13T19:32:13.308Z,64.20
2023-05-13T19:34:42.391Z,64.34
2023-05-13T19:37:09.558Z,64.45
2023-05-13T19:39:36.494Z,64.71
2023-05-13T19:42:04.065Z,65.21
2023-05-13T19:44:32.116Z,65.37
2023-05-13T19:46:59.362Z,65.71
2023-05-13T19:49:26.891Z,65.95
2023-05-13T19:51:54.492Z,65.99
2023-05-13T19:54:21.729Z,66.15
2023-05-13T19:56:49.058Z,66.20
2023-05-13T19:59:16.261Z,67.25
2023-05-13T20:01:43.287Z,67.20
2023-05-13T20:04:10.424Z,66.54
2023-05-13T20:06:37.612Z,67.22
2023-05-13T20:09:04.957Z,67.79
2023-05-13T20:11:32.246Z,67.48
2023-05-13T20:13:59.750Z,67.00
2023-05-13T20:16:27.180Z,66.37
2023-05-13T20:18:54.728Z,66.90
2023-05-13T20:21:21.865Z,67.48
2023-05-13T20:23:49.031Z,67.38
2023-05-13T20:26:16.040Z,67.30
2023-05-13T20:28:45.198Z,67.62
2023-05-13T20:31:12.229Z,67.66
2023-05-13T20:33:39.327Z,67.87
2023-05-13T20:36:06.947Z,67.68
2023-05-13T20:38:34.084Z,67.59
2023-05-13T20:41:01.139Z,67.94
2023-05-13T20:43:28.256Z,68.15
2023-05-13T20:45:55.260Z,68.40
2023-05-13T20:48:22.815Z,68.07
2023-05-13T20:50:49.928Z,67.92
2023-05-13T20:53:17.093Z,68.07
2023-05-13T20:55:44.330Z,68.60
2023-05-13T20:58:12.303Z,68.96
2023-05-13T21:00:39.370Z,68.48
2023-05-13T21:03:06.914Z,68.07
2023-05-13T21:05:34.215Z,68.30
2023-05-13T21:08:01.467Z,68.51
2023-05-13T21:10:28.552Z,68.11
2023-05-13T21:12:55.688Z,68.43
2023-05-13T21:15:22.804Z,67.95
2023-05-13T21:17:50.008Z,66.90
2023-05-13T21:20:17.738Z,66.97
2023-05-13T21:22:44.959Z,67.54
2023-05-13T21:25:12.161Z,67.43
2023-05-13T21:27:39.776Z,66.65
2023-05-13T21:30:07.618Z,66.70
2023-05-13T21:32:34.726Z,66.72
2023-05-13T21:35:05.410Z,66.99
2023-05-13T21:37:32.478Z,67.14
2023-05-13T21:39:59.668Z,66.94
2023-05-13T21:42:27.279Z,67.78
2023-05-13T21:44:54.409Z,67.70
2023-05-13T21:47:22.752Z,68.50
2023-05-13T21:49:49.940Z,69.04
2023-05-13T21:52:17.481Z,68.90
2023-05-13T21:54:44.859Z,68.89
2023-05-13T21:57:12.312Z,69.12
2023-05-13T21:59:39.490Z,69.15
2023-05-13T22:02:06.757Z,69.43
2023-05-13T22:04:33.840Z,69.09
2023-05-13T22:07:02.267Z,68.85
2023-05-13T22:09:29.472Z,70.94
2023-05-13T22:11:56.789Z,70.79
2023-05-13T22:14:23.942Z,70.51
2023-05-13T22:17:07.160Z,70.35
2023-05-13T22:19:36.301Z,70.57
2023-05-13T22:22:03.647Z,70.64
2023-05-13T22:24:33.876Z,71.21
2023-05-13T22:27:01.060Z,71.12
2023-05-13T22:29:28.450Z,71.86
2023-05-13T22:31:57.690Z,71.92
2023-05-13T22:34:26.734Z,71.33
2023-05-13T22:36:54.598Z,71.30
2023-05-13T22:39:22.010Z,71.33
2023-05-13T22:41:49.280Z,71.39
2023-05-13T22:44:16.547Z,71.26
2023-05-13T22:46:43.681Z,71.62
2023-05-13T22:49:12.476Z,71.63
2023-05-13T22:51:39.621Z,71.95
2023-05-13T22:54:07.192Z,71.74
2023-05-13T22:56:34.458Z,71.98
2023-05-13T22:59:01.509Z,71.98
2023-05-13T23:01:28.808Z,72.09
2023-05-13T23:03:56.023Z,71.40
2023-05-13T23:06:23.070Z,71.96
2023-05-13T23:08:50.226Z,72.52
2023-05-13T23:11:17.398Z,72.47
2023-05-13T23:13:44.623Z,72.93
2023-05-13T23:16:11.883Z,72.97
2023-05-13T23:18:39.176Z,72.98
2023-05-13T23:21:09.291Z,73.14
2023-05-13T23:23:36.538Z,73.21
2023-05-13T23:26:06.052Z,73.29
2023-05-13T23:28:33.714Z,73.66
2023-05-13T23:31:01.151Z,73.77
2023-05-13T23:33:28.546Z,73.99
2023-05-13T23:35:56.518Z,73.80
2023-05-13T23:38:23.888Z,74.47
2023-05-13T23:40:51.155Z,76.09
2023-05-13T23:43:18.484Z,76.10
2023-05-13T23:45:46.688Z,76.19
2023-05-13T23:48:13.926Z,76.44
2023-05-13T23:50:43.967Z,75.48
2023-05-13T23:53:11.182Z,75.04
2023-05-13T23:55:38.314Z,74.45
2023-05-13T23:58:05.416Z,73.59
